This is the latest recevied weather packets stored in our database for station/object IK1PCD-11. If no packets are shown the sender has not sent any weather packets the latest 1 day(s).
| Time | Temp. | Humidity | Pressure | Rain* | Wind** | Luminosity | Snow |
|---|---|---|---|---|---|---|---|
| 1777765379 | 5° C | 71% | 1020.1 hPa | - | - | - | - |
| 1777764479 | 5° C | 73% | 1020.3 hPa | - | - | - | - |
| 1777763579 | 4.44° C | 71% | 1020.4 hPa | - | - | - | - |
| 1777762679 | 5° C | 70% | 1020.5 hPa | - | - | - | - |
| 1777761779 | 5° C | 69% | 1020.7 hPa | - | - | - | - |
| 1777760879 | 5° C | 69% | 1020.6 hPa | - | - | - | - |
| 1777759979 | 5° C | 68% | 1020.7 hPa | - | - | - | - |
| 1777759079 | 5° C | 70% | 1020.8 hPa | - | - | - | - |
| 1777758178 | 5.56° C | 72% | 1020.7 hPa | - | - | - | - |
| 1777756378 | 6.11° C | 68% | 1020.7 hPa | - | - | - | - |
| 1777755478 | 6.11° C | 69% | 1020.8 hPa | - | - | - | - |
| 1777752779 | 6.67° C | 69% | 1020.9 hPa | - | - | - | - |
| 1777751878 | 7.22° C | 73% | 1020.9 hPa | - | - | - | - |
| 1777750977 | 7.22° C | 74% | 1021 hPa | - | - | - | - |
| 1777750077 | 7.78° C | 74% | 1021 hPa | - | - | - | - |
| 1777749178 | 8.33° C | 74% | 1020.8 hPa | - | - | - | - |
| 1777748275 | 8.89° C | 72% | 1020.8 hPa | - | - | - | - |
| 1777747375 | 9.44° C | 70% | 1020.8 hPa | - | - | - | - |
| 1777746473 | 10.56° C | 67% | 1020.7 hPa | - | - | - | - |
| 1777745572 | 11.67° C | 64% | 1020.6 hPa | - | - | - | - |
| 1777744696 | 12.78° C | 57% | 1020.7 hPa | - | - | - | - |
| 1777743795 | 14.44° C | 51% | 1020.8 hPa | - | - | - | - |
| 1777742900 | 14.44° C | 53% | 1020.8 hPa | - | - | - | - |
| 1777741995 | 15.56° C | 50% | 1020.9 hPa | - | - | - | - |
| 1777741095 | 15.56° C | 50% | 1020.8 hPa | - | - | - | - |
* Rain since midnight (hover to see other rain measurements)
** Current wind speed in m/s (hover to see current wind gust speed)